sensor_id;sensor_type;location;lat;lon;timestamp;pressure;altitude;pressure_sealevel;temperature;humidity
26563;BME280;14217;50.986;5.826;2023-07-16T00:02:49;100367.03;;;28.21;42.25
26563;BME280;14217;50.986;5.826;2023-07-16T00:07:51;100366.31;;;28.18;41.93
26563;BME280;14217;50.986;5.826;2023-07-16T00:12:53;100366.31;;;28.18;41.51
26563;BME280;14217;50.986;5.826;2023-07-16T00:17:55;100377.41;;;28.15;41.38
26563;BME280;14217;50.986;5.826;2023-07-16T00:22:57;100376.81;;;28.12;41.27
26563;BME280;14217;50.986;5.826;2023-07-16T00:28:00;100371.88;;;28.17;40.93
26563;BME280;14217;50.986;5.826;2023-07-16T00:33:02;100376.38;;;28.16;40.82
26563;BME280;14217;50.986;5.826;2023-07-16T00:38:04;100375.81;;;28.23;40.44
26563;BME280;14217;50.986;5.826;2023-07-16T00:43:05;100373.44;;;28.20;40.71
26563;BME280;14217;50.986;5.826;2023-07-16T00:48:08;100366.50;;;28.17;40.40
26563;BME280;14217;50.986;5.826;2023-07-16T00:53:10;100362.91;;;28.16;40.45
26563;BME280;14217;50.986;5.826;2023-07-16T00:58:14;100370.03;;;28.17;40.50
26563;BME280;14217;50.986;5.826;2023-07-16T01:03:15;100371.31;;;28.13;40.54
26563;BME280;14217;50.986;5.826;2023-07-16T01:08:49;100377.41;;;28.15;40.25
26563;BME280;14217;50.986;5.826;2023-07-16T01:13:56;100376.56;;;28.15;40.34
26563;BME280;14217;50.986;5.826;2023-07-16T01:18:59;100371.72;;;28.18;40.25
26563;BME280;14217;50.986;5.826;2023-07-16T01:29:51;100374.41;;;28.18;40.08
26563;BME280;14217;50.986;5.826;2023-07-16T01:34:53;100378.09;;;28.17;40.25
26563;BME280;14217;50.986;5.826;2023-07-16T01:39:55;100382.78;;;28.15;40.29
26563;BME280;14217;50.986;5.826;2023-07-16T01:44:57;100388.59;;;28.11;40.11
26563;BME280;14217;50.986;5.826;2023-07-16T01:49:59;100378.53;;;28.13;40.23
26563;BME280;14217;50.986;5.826;2023-07-16T01:55:01;100396.13;;;28.17;40.06
26563;BME280;14217;50.986;5.826;2023-07-16T02:00:04;100394.97;;;28.20;40.09
26563;BME280;14217;50.986;5.826;2023-07-16T02:05:06;100393.44;;;28.17;39.88
26563;BME280;14217;50.986;5.826;2023-07-16T02:10:08;100396.13;;;28.17;39.89
26563;BME280;14217;50.986;5.826;2023-07-16T02:15:10;100411.84;;;28.12;39.57
26563;BME280;14217;50.986;5.826;2023-07-16T02:20:13;100414.25;;;28.15;39.53
26563;BME280;14217;50.986;5.826;2023-07-16T02:25:15;100418.78;;;28.14;39.34
26563;BME280;14217;50.986;5.826;2023-07-16T02:30:17;100433.97;;;28.15;38.91
26563;BME280;14217;50.986;5.826;2023-07-16T02:35:19;100426.47;;;28.19;38.54
26563;BME280;14217;50.986;5.826;2023-07-16T02:40:21;100432.41;;;28.13;38.74
26563;BME280;14217;50.986;5.826;2023-07-16T02:45:23;100426.16;;;28.12;38.52
26563;BME280;14217;50.986;5.826;2023-07-16T02:50:25;100435.09;;;28.13;37.99
26563;BME280;14217;50.986;5.826;2023-07-16T02:55:28;100436.91;;;28.12;37.89
26563;BME280;14217;50.986;5.826;2023-07-16T03:00:31;100447.56;;;28.14;37.85
26563;BME280;14217;50.986;5.826;2023-07-16T03:05:33;100439.34;;;28.15;37.55
26563;BME280;14217;50.986;5.826;2023-07-16T03:10:35;100442.03;;;28.15;37.33
26563;BME280;14217;50.986;5.826;2023-07-16T03:15:37;100451.41;;;28.11;37.29
26563;BME280;14217;50.986;5.826;2023-07-16T03:20:39;100449.72;;;28.10;37.00
26563;BME280;14217;50.986;5.826;2023-07-16T03:25:41;100467.41;;;28.13;36.87
26563;BME280;14217;50.986;5.826;2023-07-16T03:30:50;100463.19;;;28.10;36.73
26563;BME280;14217;50.986;5.826;2023-07-16T03:35:52;100472.81;;;28.13;36.64
26563;BME280;14217;50.986;5.826;2023-07-16T03:40:55;100476.66;;;28.10;36.44
26563;BME280;14217;50.986;5.826;2023-07-16T03:45:57;100477.31;;;28.12;36.21
26563;BME280;14217;50.986;5.826;2023-07-16T03:50:59;100485.41;;;28.12;35.97
26563;BME280;14217;50.986;5.826;2023-07-16T03:56:01;100484.72;;;28.10;35.97
26563;BME280;14217;50.986;5.826;2023-07-16T04:01:03;100501.28;;;28.06;35.85
26563;BME280;14217;50.986;5.826;2023-07-16T04:06:07;100510.06;;;28.08;35.98
26563;BME280;14217;50.986;5.826;2023-07-16T04:11:11;100499.16;;;28.09;35.62
26563;BME280;14217;50.986;5.826;2023-07-16T04:16:13;100503.41;;;28.02;35.82
26563;BME280;14217;50.986;5.826;2023-07-16T04:21:15;100505.78;;;27.95;35.68
26563;BME280;14217;50.986;5.826;2023-07-16T04:26:17;100525.50;;;28.06;35.58
26563;BME280;14217;50.986;5.826;2023-07-16T04:31:19;100513.31;;;28.02;35.35
26563;BME280;14217;50.986;5.826;2023-07-16T04:36:22;100532.75;;;28.05;35.11
26563;BME280;14217;50.986;5.826;2023-07-16T04:41:24;100534.47;;;28.06;35.10
26563;BME280;14217;50.986;5.826;2023-07-16T04:46:26;100537.16;;;28.06;34.96
26563;BME280;14217;50.986;5.826;2023-07-16T04:51:28;100542.94;;;28.02;35.25
26563;BME280;14217;50.986;5.826;2023-07-16T04:56:30;100555.13;;;28.06;34.92
26563;BME280;14217;50.986;5.826;2023-07-16T05:01:32;100565.34;;;28.02;34.79
26563;BME280;14217;50.986;5.826;2023-07-16T05:06:34;100565.19;;;28.04;34.68
26563;BME280;14217;50.986;5.826;2023-07-16T05:11:36;100568.47;;;28.07;34.53
26563;BME280;14217;50.986;5.826;2023-07-16T05:16:39;100571.72;;;28.01;34.62
26563;BME280;14217;50.986;5.826;2023-07-16T05:21:42;100579.78;;;28.01;34.42
26563;BME280;14217;50.986;5.826;2023-07-16T05:26:44;100591.16;;;28.05;34.22
26563;BME280;14217;50.986;5.826;2023-07-16T05:31:46;100590.03;;;28.07;34.06
26563;BME280;14217;50.986;5.826;2023-07-16T05:36:49;100596.97;;;28.00;33.97
26563;BME280;14217;50.986;5.826;2023-07-16T05:41:51;100602.06;;;28.03;33.78
26563;BME280;14217;50.986;5.826;2023-07-16T05:46:53;100608.28;;;28.04;33.85
26563;BME280;14217;50.986;5.826;2023-07-16T05:51:55;100606.19;;;28.07;33.81
26563;BME280;14217;50.986;5.826;2023-07-16T05:56:58;100608.44;;;28.02;33.77
26563;BME280;14217;50.986;5.826;2023-07-16T06:02:00;100613.66;;;28.04;33.85
26563;BME280;14217;50.986;5.826;2023-07-16T06:07:02;100622.22;;;28.09;33.48
26563;BME280;14217;50.986;5.826;2023-07-16T06:12:05;100619.38;;;28.10;33.68
26563;BME280;14217;50.986;5.826;2023-07-16T06:17:07;100623.78;;;28.11;33.34
26563;BME280;14217;50.986;5.826;2023-07-16T06:22:09;100623.06;;;28.09;33.69
26563;BME280;14217;50.986;5.826;2023-07-16T06:27:11;100630.84;;;28.12;33.39
26563;BME280;14217;50.986;5.826;2023-07-16T06:32:13;100630.47;;;27.65;33.19
26563;BME280;14217;50.986;5.826;2023-07-16T06:37:15;100641.66;;;27.61;33.33
26563;BME280;14217;50.986;5.826;2023-07-16T06:42:17;100639.16;;;27.90;33.01
26563;BME280;14217;50.986;5.826;2023-07-16T06:47:19;100649.94;;;28.00;33.05
26563;BME280;14217;50.986;5.826;2023-07-16T06:52:22;100660.06;;;28.07;32.71
26563;BME280;14217;50.986;5.826;2023-07-16T06:57:24;100660.47;;;28.03;32.86
26563;BME280;14217;50.986;5.826;2023-07-16T07:02:26;100663.88;;;28.05;32.78
26563;BME280;14217;50.986;5.826;2023-07-16T07:07:28;100656.50;;;28.07;32.67
26563;BME280;14217;50.986;5.826;2023-07-16T07:12:30;100651.00;;;28.08;32.77
26563;BME280;14217;50.986;5.826;2023-07-16T07:17:39;100658.19;;;28.08;32.82
26563;BME280;14217;50.986;5.826;2023-07-16T07:22:41;100669.50;;;27.50;33.49
26563;BME280;14217;50.986;5.826;2023-07-16T07:27:43;100664.59;;;26.90;35.60
26563;BME280;14217;50.986;5.826;2023-07-16T07:32:47;100671.28;;;26.96;34.76
26563;BME280;14217;50.986;5.826;2023-07-16T07:37:49;100673.56;;;27.12;34.67
26563;BME280;14217;50.986;5.826;2023-07-16T07:42:52;100669.06;;;27.01;34.93
26563;BME280;14217;50.986;5.826;2023-07-16T07:47:54;100679.53;;;27.15;34.85
26563;BME280;14217;50.986;5.826;2023-07-16T07:52:56;100678.97;;;27.01;34.79
26563;BME280;14217;50.986;5.826;2023-07-16T07:57:58;100674.91;;;27.06;34.94
26563;BME280;14217;50.986;5.826;2023-07-16T08:03:00;100687.47;;;27.17;34.68
26563;BME280;14217;50.986;5.826;2023-07-16T08:08:03;100689.56;;;27.13;35.47
26563;BME280;14217;50.986;5.826;2023-07-16T08:13:06;100693.84;;;27.05;34.81
26563;BME280;14217;50.986;5.826;2023-07-16T08:18:08;100682.97;;;27.06;34.71
26563;BME280;14217;50.986;5.826;2023-07-16T08:23:10;100694.34;;;27.10;34.57
26563;BME280;14217;50.986;5.826;2023-07-16T08:28:13;100689.94;;;27.09;34.49
26563;BME280;14217;50.986;5.826;2023-07-16T08:33:16;100700.50;;;26.89;34.51
26563;BME280;14217;50.986;5.826;2023-07-16T08:38:18;100708.69;;;26.88;34.60
26563;BME280;14217;50.986;5.826;2023-07-16T08:43:21;100711.16;;;26.91;34.51
26563;BME280;14217;50.986;5.826;2023-07-16T08:48:24;100704.97;;;26.68;35.36
26563;BME280;14217;50.986;5.826;2023-07-16T08:53:26;100699.50;;;27.02;34.71
26563;BME280;14217;50.986;5.826;2023-07-16T08:58:29;100706.63;;;26.91;35.05
26563;BME280;14217;50.986;5.826;2023-07-16T09:03:32;100720.56;;;26.96;34.95
26563;BME280;14217;50.986;5.826;2023-07-16T09:08:34;100715.94;;;26.76;34.67
26563;BME280;14217;50.986;5.826;2023-07-16T09:13:36;100712.16;;;26.56;35.04
26563;BME280;14217;50.986;5.826;2023-07-16T09:18:39;100717.25;;;26.93;34.62
26563;BME280;14217;50.986;5.826;2023-07-16T09:23:42;100705.69;;;26.70;35.58
26563;BME280;14217;50.986;5.826;2023-07-16T09:28:47;100718.28;;;26.69;35.61
26563;BME280;14217;50.986;5.826;2023-07-16T09:33:51;100715.19;;;26.85;35.42
26563;BME280;14217;50.986;5.826;2023-07-16T09:38:57;100736.47;;;26.88;35.35
26563;BME280;14217;50.986;5.826;2023-07-16T09:44:00;100740.41;;;26.62;35.42
26563;BME280;14217;50.986;5.826;2023-07-16T09:49:02;100723.13;;;26.87;34.40
26563;BME280;14217;50.986;5.826;2023-07-16T09:54:05;100731.31;;;26.85;34.33
26563;BME280;14217;50.986;5.826;2023-07-16T09:59:13;100741.69;;;26.90;34.06
26563;BME280;14217;50.986;5.826;2023-07-16T10:04:16;100737.31;;;26.89;34.20
26563;BME280;14217;50.986;5.826;2023-07-16T10:09:37;100721.56;;;26.84;34.36
26563;BME280;14217;50.986;5.826;2023-07-16T10:14:45;100735.44;;;27.01;34.35
26563;BME280;14217;50.986;5.826;2023-07-16T10:19:52;100735.31;;;27.02;34.45
26563;BME280;14217;50.986;5.826;2023-07-16T10:24:56;100741.53;;;27.03;34.47
26563;BME280;14217;50.986;5.826;2023-07-16T10:29:59;100744.44;;;27.11;34.48
26563;BME280;14217;50.986;5.826;2023-07-16T10:35:05;100751.66;;;27.10;34.21
26563;BME280;14217;50.986;5.826;2023-07-16T10:40:12;100756.81;;;27.02;34.09
26563;BME280;14217;50.986;5.826;2023-07-16T10:45:15;100758.16;;;27.08;33.89
26563;BME280;14217;50.986;5.826;2023-07-16T10:50:19;100752.78;;;27.08;34.36
26563;BME280;14217;50.986;5.826;2023-07-16T10:55:23;100766.72;;;27.02;34.13
26563;BME280;14217;50.986;5.826;2023-07-16T11:00:27;100757.66;;;27.03;34.12
26563;BME280;14217;50.986;5.826;2023-07-16T11:05:30;100776.13;;;26.96;34.19
26563;BME280;14217;50.986;5.826;2023-07-16T11:10:32;100776.41;;;26.93;33.97
26563;BME280;14217;50.986;5.826;2023-07-16T11:15:35;100776.03;;;26.97;33.79
26563;BME280;14217;50.986;5.826;2023-07-16T11:20:37;100772.72;;;27.05;34.04
26563;BME280;14217;50.986;5.826;2023-07-16T11:25:45;100777.72;;;27.10;33.48
26563;BME280;14217;50.986;5.826;2023-07-16T11:30:48;100785.78;;;27.10;33.51
26563;BME280;14217;50.986;5.826;2023-07-16T11:35:50;100786.00;;;27.07;33.83
26563;BME280;14217;50.986;5.826;2023-07-16T11:40:52;100788.94;;;27.15;33.77
26563;BME280;14217;50.986;5.826;2023-07-16T11:45:54;100801.16;;;27.19;33.92
26563;BME280;14217;50.986;5.826;2023-07-16T11:50:56;100806.69;;;27.06;33.65
26563;BME280;14217;50.986;5.826;2023-07-16T11:55:58;100809.75;;;27.02;33.58
26563;BME280;14217;50.986;5.826;2023-07-16T12:01:00;100798.88;;;27.03;33.25
26563;BME280;14217;50.986;5.826;2023-07-16T12:06:03;100804.75;;;26.97;33.29
26563;BME280;14217;50.986;5.826;2023-07-16T12:11:05;100817.81;;;27.02;33.20
26563;BME280;14217;50.986;5.826;2023-07-16T12:16:07;100818.94;;;26.99;33.05
26563;BME280;14217;50.986;5.826;2023-07-16T12:21:10;100822.34;;;27.01;33.40
26563;BME280;14217;50.986;5.826;2023-07-16T12:26:12;100810.13;;;26.97;33.23
26563;BME280;14217;50.986;5.826;2023-07-16T12:31:15;100811.59;;;27.01;33.00
26563;BME280;14217;50.986;5.826;2023-07-16T12:36:18;100819.41;;;27.04;32.84
26563;BME280;14217;50.986;5.826;2023-07-16T12:41:20;100817.56;;;27.05;32.74
26563;BME280;14217;50.986;5.826;2023-07-16T12:46:22;100813.53;;;27.10;32.66
26563;BME280;14217;50.986;5.826;2023-07-16T12:51:25;100801.41;;;27.16;32.66
26563;BME280;14217;50.986;5.826;2023-07-16T12:56:27;100812.44;;;27.24;32.67
26563;BME280;14217;50.986;5.826;2023-07-16T13:01:30;100805.72;;;27.07;32.97
26563;BME280;14217;50.986;5.826;2023-07-16T13:06:32;100818.78;;;27.12;32.85
26563;BME280;14217;50.986;5.826;2023-07-16T13:11:34;100809.22;;;27.19;32.90
26563;BME280;14217;50.986;5.826;2023-07-16T13:16:37;100802.88;;;27.20;33.16
26563;BME280;14217;50.986;5.826;2023-07-16T13:21:39;100806.19;;;27.24;32.80
26563;BME280;14217;50.986;5.826;2023-07-16T13:26:41;100818.03;;;27.32;32.78
26563;BME280;14217;50.986;5.826;2023-07-16T13:31:45;100820.81;;;27.20;32.93
26563;BME280;14217;50.986;5.826;2023-07-16T13:36:48;100824.50;;;27.18;32.74
26563;BME280;14217;50.986;5.826;2023-07-16T13:41:50;100825.63;;;27.27;32.40
26563;BME280;14217;50.986;5.826;2023-07-16T13:46:52;100825.13;;;27.11;32.78
26563;BME280;14217;50.986;5.826;2023-07-16T13:51:55;100832.47;;;27.20;32.64
26563;BME280;14217;50.986;5.826;2023-07-16T13:56:57;100841.03;;;27.14;32.85
26563;BME280;14217;50.986;5.826;2023-07-16T14:02:01;100840.66;;;27.18;32.94
26563;BME280;14217;50.986;5.826;2023-07-16T14:07:04;100834.69;;;27.26;32.91
26563;BME280;14217;50.986;5.826;2023-07-16T14:12:06;100827.81;;;27.33;33.04
26563;BME280;14217;50.986;5.826;2023-07-16T14:17:09;100836.50;;;27.26;33.25
26563;BME280;14217;50.986;5.826;2023-07-16T14:22:11;100823.66;;;27.29;33.01
26563;BME280;14217;50.986;5.826;2023-07-16T14:27:14;100826.63;;;27.26;32.86
26563;BME280;14217;50.986;5.826;2023-07-16T14:32:16;100824.91;;;27.25;32.59
26563;BME280;14217;50.986;5.826;2023-07-16T14:37:19;100837.84;;;27.20;32.85
26563;BME280;14217;50.986;5.826;2023-07-16T14:42:21;100832.22;;;27.23;32.96
26563;BME280;14217;50.986;5.826;2023-07-16T14:47:23;100838.47;;;27.24;33.10
26563;BME280;14217;50.986;5.826;2023-07-16T14:52:25;100830.16;;;27.27;32.87
26563;BME280;14217;50.986;5.826;2023-07-16T14:57:27;100819.00;;;27.31;32.92
26563;BME280;14217;50.986;5.826;2023-07-16T15:02:29;100829.03;;;27.29;32.92
26563;BME280;14217;50.986;5.826;2023-07-16T15:07:31;100825.72;;;27.37;33.02
26563;BME280;14217;50.986;5.826;2023-07-16T15:12:33;100821.59;;;27.33;32.86
26563;BME280;14217;50.986;5.826;2023-07-16T15:17:35;100820.38;;;27.14;32.52
26563;BME280;14217;50.986;5.826;2023-07-16T15:22:37;100818.41;;;27.28;32.55
26563;BME280;14217;50.986;5.826;2023-07-16T15:27:40;100816.31;;;27.31;32.26
26563;BME280;14217;50.986;5.826;2023-07-16T15:32:43;100817.56;;;27.27;32.04
26563;BME280;14217;50.986;5.826;2023-07-16T15:37:45;100815.72;;;27.28;32.20
26563;BME280;14217;50.986;5.826;2023-07-16T15:42:47;100818.16;;;27.31;31.79
26563;BME280;14217;50.986;5.826;2023-07-16T15:47:51;100810.81;;;27.33;31.87
26563;BME280;14217;50.986;5.826;2023-07-16T15:53:00;100814.34;;;27.33;31.75
26563;BME280;14217;50.986;5.826;2023-07-16T15:58:02;100807.75;;;27.37;32.00
26563;BME280;14217;50.986;5.826;2023-07-16T16:03:05;100802.47;;;27.36;32.07
26563;BME280;14217;50.986;5.826;2023-07-16T16:08:16;100805.78;;;27.40;32.36
26563;BME280;14217;50.986;5.826;2023-07-16T16:13:21;100803.81;;;27.42;32.20
26563;BME280;14217;50.986;5.826;2023-07-16T16:18:25;100813.72;;;27.41;32.14
26563;BME280;14217;50.986;5.826;2023-07-16T16:23:27;100810.91;;;27.43;31.91
26563;BME280;14217;50.986;5.826;2023-07-16T16:28:30;100809.44;;;27.38;32.25
26563;BME280;14217;50.986;5.826;2023-07-16T16:33:32;100802.75;;;27.33;31.72
26563;BME280;14217;50.986;5.826;2023-07-16T16:38:34;100808.75;;;27.14;31.96
26563;BME280;14217;50.986;5.826;2023-07-16T16:43:37;100800.06;;;27.10;32.04
26563;BME280;14217;50.986;5.826;2023-07-16T16:48:40;100809.75;;;27.24;31.95
26563;BME280;14217;50.986;5.826;2023-07-16T16:53:46;100807.00;;;27.35;32.07
26563;BME280;14217;50.986;5.826;2023-07-16T16:58:48;100803.38;;;27.25;31.91
26563;BME280;14217;50.986;5.826;2023-07-16T17:03:50;100802.75;;;27.33;31.85
26563;BME280;14217;50.986;5.826;2023-07-16T17:08:52;100804.69;;;27.20;32.00
26563;BME280;14217;50.986;5.826;2023-07-16T17:13:54;100804.56;;;27.21;31.79
26563;BME280;14217;50.986;5.826;2023-07-16T17:18:56;100810.72;;;27.23;31.86
26563;BME280;14217;50.986;5.826;2023-07-16T17:23:58;100805.44;;;27.33;31.77
26563;BME280;14217;50.986;5.826;2023-07-16T17:29:00;100805.81;;;27.28;31.95
26563;BME280;14217;50.986;5.826;2023-07-16T17:34:02;100809.72;;;27.35;32.16
26563;BME280;14217;50.986;5.826;2023-07-16T17:39:06;100817.78;;;27.35;32.06
26563;BME280;14217;50.986;5.826;2023-07-16T17:44:08;100819.34;;;27.38;32.19
26563;BME280;14217;50.986;5.826;2023-07-16T17:49:10;100809.03;;;27.22;32.31
26563;BME280;14217;50.986;5.826;2023-07-16T17:54:12;100823.03;;;27.37;32.17
26563;BME280;14217;50.986;5.826;2023-07-16T17:59:14;100822.19;;;27.36;32.24
26563;BME280;14217;50.986;5.826;2023-07-16T18:04:17;100828.03;;;27.42;32.09
26563;BME280;14217;50.986;5.826;2023-07-16T18:09:21;100826.31;;;27.41;32.51
26563;BME280;14217;50.986;5.826;2023-07-16T18:14:23;100830.72;;;27.42;32.59
26563;BME280;14217;50.986;5.826;2023-07-16T18:19:25;100838.41;;;27.46;32.70
26563;BME280;14217;50.986;5.826;2023-07-16T18:24:30;100841.09;;;27.46;33.23
26563;BME280;14217;50.986;5.826;2023-07-16T18:29:33;100847.59;;;27.44;33.89
26563;BME280;14217;50.986;5.826;2023-07-16T18:34:35;100852.97;;;27.44;34.40
26563;BME280;14217;50.986;5.826;2023-07-16T18:39:37;100854.59;;;27.35;34.77
26563;BME280;14217;50.986;5.826;2023-07-16T18:44:40;100855.81;;;27.31;35.12
26563;BME280;14217;50.986;5.826;2023-07-16T18:49:42;100864.97;;;27.17;36.28
26563;BME280;14217;50.986;5.826;2023-07-16T18:54:44;100856.91;;;27.17;36.38
26563;BME280;14217;50.986;5.826;2023-07-16T18:59:47;100875.28;;;27.34;35.68
26563;BME280;14217;50.986;5.826;2023-07-16T19:04:49;100878.44;;;27.40;35.77
26563;BME280;14217;50.986;5.826;2023-07-16T19:09:51;100883.94;;;27.38;35.70
26563;BME280;14217;50.986;5.826;2023-07-16T19:14:53;100881.97;;;27.40;35.57
26563;BME280;14217;50.986;5.826;2023-07-16T19:20:03;100887.84;;;27.45;35.81
26563;BME280;14217;50.986;5.826;2023-07-16T19:25:07;100885.50;;;27.41;35.83
26563;BME280;14217;50.986;5.826;2023-07-16T19:30:09;100890.66;;;27.44;35.85
26563;BME280;14217;50.986;5.826;2023-07-16T19:35:13;100899.84;;;27.41;36.08
26563;BME280;14217;50.986;5.826;2023-07-16T19:40:15;100900.69;;;27.42;35.85
26563;BME280;14217;50.986;5.826;2023-07-16T19:45:18;100904.34;;;27.41;35.72
26563;BME280;14217;50.986;5.826;2023-07-16T19:50:20;100908.28;;;27.36;36.07
26563;BME280;14217;50.986;5.826;2023-07-16T19:55:22;100893.06;;;27.47;35.52
26563;BME280;14217;50.986;5.826;2023-07-16T20:00:24;100915.34;;;27.49;35.70
26563;BME280;14217;50.986;5.826;2023-07-16T20:05:29;100912.91;;;27.46;35.84
26563;BME280;14217;50.986;5.826;2023-07-16T20:10:31;100919.13;;;27.46;35.63
26563;BME280;14217;50.986;5.826;2023-07-16T20:15:33;100903.13;;;27.45;35.68
26563;BME280;14217;50.986;5.826;2023-07-16T20:20:37;100892.22;;;27.46;35.32
26563;BME280;14217;50.986;5.826;2023-07-16T20:25:39;100904.84;;;27.46;35.17
26563;BME280;14217;50.986;5.826;2023-07-16T20:30:44;100907.03;;;27.52;34.93
26563;BME280;14217;50.986;5.826;2023-07-16T20:35:46;100917.44;;;27.45;34.72
26563;BME280;14217;50.986;5.826;2023-07-16T20:40:49;100925.13;;;27.50;35.15
26563;BME280;14217;50.986;5.826;2023-07-16T20:45:51;100926.38;;;27.46;35.03
26563;BME280;14217;50.986;5.826;2023-07-16T20:50:54;100935.91;;;27.50;34.63
26563;BME280;14217;50.986;5.826;2023-07-16T20:55:56;100934.66;;;27.43;34.89
26563;BME280;14217;50.986;5.826;2023-07-16T21:00:58;100932.97;;;27.42;34.83
26563;BME280;14217;50.986;5.826;2023-07-16T21:06:00;100935.78;;;27.40;34.61
26563;BME280;14217;50.986;5.826;2023-07-16T21:11:02;100922.22;;;27.42;34.62
26563;BME280;14217;50.986;5.826;2023-07-16T21:16:04;100921.22;;;27.43;34.78
26563;BME280;14217;50.986;5.826;2023-07-16T21:21:07;100932.72;;;27.45;34.46
26563;BME280;14217;50.986;5.826;2023-07-16T21:26:09;100921.00;;;27.46;34.39
26563;BME280;14217;50.986;5.826;2023-07-16T21:31:11;100921.22;;;27.43;34.56
26563;BME280;14217;50.986;5.826;2023-07-16T21:36:13;100923.06;;;27.42;34.42
26563;BME280;14217;50.986;5.826;2023-07-16T21:41:15;100923.41;;;27.49;34.35
26563;BME280;14217;50.986;5.826;2023-07-16T21:46:18;100922.91;;;27.55;34.12
26563;BME280;14217;50.986;5.826;2023-07-16T21:51:20;100917.19;;;27.48;34.34
26563;BME280;14217;50.986;5.826;2023-07-16T21:56:22;100921.59;;;27.49;34.39
26563;BME280;14217;50.986;5.826;2023-07-16T22:01:24;100924.41;;;27.48;34.56
26563;BME280;14217;50.986;5.826;2023-07-16T22:06:26;100916.06;;;27.51;34.55
26563;BME280;14217;50.986;5.826;2023-07-16T22:11:28;100921.09;;;27.55;35.07
26563;BME280;14217;50.986;5.826;2023-07-16T22:16:34;100916.94;;;27.51;35.23
26563;BME280;14217;50.986;5.826;2023-07-16T22:21:37;100930.41;;;27.51;35.23
26563;BME280;14217;50.986;5.826;2023-07-16T22:26:39;100934.91;;;27.51;35.18
26563;BME280;14217;50.986;5.826;2023-07-16T22:31:41;100953.00;;;27.49;35.24
26563;BME280;14217;50.986;5.826;2023-07-16T22:36:44;100977.88;;;27.41;35.44
26563;BME280;14217;50.986;5.826;2023-07-16T22:41:46;100975.19;;;27.41;35.26
26563;BME280;14217;50.986;5.826;2023-07-16T22:46:48;100981.41;;;27.42;34.87
26563;BME280;14217;50.986;5.826;2023-07-16T22:51:50;100996.09;;;27.37;35.13
26563;BME280;14217;50.986;5.826;2023-07-16T22:56:52;100997.19;;;27.35;35.44
26563;BME280;14217;50.986;5.826;2023-07-16T23:01:54;101010.88;;;27.32;35.60
26563;BME280;14217;50.986;5.826;2023-07-16T23:06:56;101017.72;;;27.25;35.35
26563;BME280;14217;50.986;5.826;2023-07-16T23:11:59;101034.72;;;27.25;35.52
26563;BME280;14217;50.986;5.826;2023-07-16T23:17:01;100996.84;;;27.28;35.60
26563;BME280;14217;50.986;5.826;2023-07-16T23:22:03;100962.81;;;27.27;36.68
26563;BME280;14217;50.986;5.826;2023-07-16T23:27:05;100985.81;;;27.31;36.42
26563;BME280;14217;50.986;5.826;2023-07-16T23:32:08;101001.97;;;27.31;36.91
26563;BME280;14217;50.986;5.826;2023-07-16T23:37:10;100981.44;;;27.30;37.41
26563;BME280;14217;50.986;5.826;2023-07-16T23:42:12;100982.38;;;27.29;37.39
26563;BME280;14217;50.986;5.826;2023-07-16T23:47:14;100983.13;;;27.31;37.38
26563;BME280;14217;50.986;5.826;2023-07-16T23:52:17;100984.34;;;27.27;37.37
26563;BME280;14217;50.986;5.826;2023-07-16T23:57:19;100984.13;;;27.30;37.62
